createdAt,value
2019-05-28T00:00:11.318Z,13.05
2019-05-28T00:02:41.166Z,13.05
2019-05-28T00:05:10.832Z,13.03
2019-05-28T00:07:40.483Z,13.04
2019-05-28T00:10:10.162Z,13.00
2019-05-28T00:12:39.544Z,12.99
2019-05-28T00:15:09.205Z,12.99
2019-05-28T00:17:38.807Z,12.99
2019-05-28T00:20:09.001Z,12.99
2019-05-28T00:22:38.318Z,13.00
2019-05-28T00:25:08.362Z,13.00
2019-05-28T00:27:38.069Z,13.04
2019-05-28T00:30:19.087Z,13.05
2019-05-28T00:32:39.264Z,13.07
2019-05-28T00:35:09.004Z,13.11
2019-05-28T00:37:38.362Z,13.14
2019-05-28T00:40:08.034Z,13.14
2019-05-28T00:42:37.511Z,13.14
2019-05-28T00:45:09.201Z,13.16
2019-05-28T00:47:38.534Z,13.14
2019-05-28T00:50:09.979Z,13.12
2019-05-28T00:52:39.479Z,13.11
2019-05-28T00:55:09.365Z,13.10
2019-05-28T00:57:44.734Z,13.08
2019-05-28T01:00:14.810Z,13.06
2019-05-28T01:02:44.207Z,13.08
2019-05-28T01:05:14.051Z,13.09
2019-05-28T01:07:43.376Z,13.08
2019-05-28T01:10:12.778Z,13.08
2019-05-28T01:12:42.113Z,13.08
2019-05-28T01:15:11.749Z,13.14
2019-05-28T01:17:41.404Z,13.15
2019-05-28T01:20:11.619Z,13.16
2019-05-28T01:22:41.225Z,13.18
2019-05-28T01:25:10.625Z,13.17
2019-05-28T01:27:40.920Z,13.15
2019-05-28T01:30:11.561Z,13.14
2019-05-28T01:32:40.890Z,13.14
2019-05-28T01:35:10.387Z,13.13
2019-05-28T01:37:40.015Z,13.07
2019-05-28T01:40:10.457Z,13.05
2019-05-28T01:42:39.782Z,13.04
2019-05-28T01:45:09.549Z,13.04
2019-05-28T01:47:38.896Z,13.02
2019-05-28T01:50:08.577Z,13.04
2019-05-28T01:52:38.479Z,13.06
2019-05-28T01:55:08.904Z,13.05
2019-05-28T01:57:38.343Z,13.05
2019-05-28T02:00:08.022Z,13.03
2019-05-28T02:02:37.594Z,13.05
2019-05-28T02:05:08.087Z,13.05
2019-05-28T02:07:37.406Z,13.04
2019-05-28T02:10:07.880Z,13.04
2019-05-28T02:12:37.286Z,13.05
2019-05-28T02:15:08.560Z,13.05
2019-05-28T02:17:37.956Z,13.04
2019-05-28T02:20:09.315Z,13.04
2019-05-28T02:22:39.672Z,13.02
2019-05-28T02:25:10.279Z,13.00
2019-05-28T02:27:39.646Z,13.00
2019-05-28T02:30:11.283Z,13.02
2019-05-28T02:32:41.813Z,13.05
2019-05-28T02:35:11.892Z,13.12
2019-05-28T02:37:41.237Z,13.13
2019-05-28T02:40:11.001Z,13.12
2019-05-28T02:42:40.341Z,13.10
2019-05-28T02:45:10.900Z,13.10
2019-05-28T02:47:40.310Z,13.10
2019-05-28T02:50:11.088Z,13.13
2019-05-28T02:52:42.094Z,13.18
2019-05-28T02:55:12.360Z,13.20
2019-05-28T02:57:43.057Z,13.21
2019-05-28T03:00:17.147Z,13.21
2019-05-28T03:02:49.524Z,13.18
2019-05-28T03:05:19.449Z,13.14
2019-05-28T03:07:50.956Z,13.13
2019-05-28T03:11:00.068Z,13.10
2019-05-28T03:13:06.288Z,13.10
2019-05-28T03:15:38.704Z,13.08
2019-05-28T03:18:11.132Z,13.08
2019-05-28T03:20:42.780Z,13.10
2019-05-28T03:23:13.263Z,13.14
2019-05-28T03:25:42.566Z,13.15
2019-05-28T03:28:11.960Z,13.15
2019-05-28T03:30:41.358Z,13.15
2019-05-28T03:33:10.686Z,13.16
2019-05-28T03:35:42.298Z,13.14
2019-05-28T03:38:12.574Z,13.08
2019-05-28T03:40:47.004Z,13.05
2019-05-28T03:43:16.385Z,13.01
2019-05-28T03:45:46.264Z,12.98
2019-05-28T03:48:16.561Z,12.94
2019-05-28T03:50:45.896Z,12.92
2019-05-28T03:53:15.234Z,12.90
2019-05-28T03:55:45.702Z,12.88
2019-05-28T03:58:15.338Z,12.86
2019-05-28T04:00:44.706Z,12.85
2019-05-28T04:03:14.037Z,12.86
2019-05-28T04:05:43.644Z,12.84
2019-05-28T04:08:13.150Z,12.82
2019-05-28T04:10:42.512Z,12.80
2019-05-28T04:13:12.099Z,12.79
2019-05-28T04:15:41.438Z,12.77
2019-05-28T04:18:10.809Z,12.76
2019-05-28T04:20:40.185Z,12.75
2019-05-28T04:23:15.087Z,12.75
2019-05-28T04:25:46.836Z,12.74
2019-05-28T04:28:16.471Z,12.74
2019-05-28T04:30:45.815Z,12.79
2019-05-28T04:33:15.214Z,12.83
2019-05-28T04:35:44.479Z,12.85
2019-05-28T04:38:13.833Z,12.89
2019-05-28T04:40:43.166Z,12.92
2019-05-28T04:43:13.959Z,12.94
2019-05-28T04:45:43.304Z,12.96
2019-05-28T04:48:12.923Z,12.96
2019-05-28T04:50:42.255Z,12.99
2019-05-28T04:53:11.610Z,13.02
2019-05-28T04:55:41.918Z,13.07
2019-05-28T04:58:11.244Z,13.11
2019-05-28T05:00:40.868Z,13.16
2019-05-28T05:03:10.199Z,13.16
2019-05-28T05:05:39.547Z,13.08
2019-05-28T05:08:08.876Z,13.06
2019-05-28T05:10:38.219Z,13.05
2019-05-28T05:13:07.550Z,13.07
2019-05-28T05:15:37.287Z,13.07
2019-05-28T05:18:07.619Z,13.07
2019-05-28T05:20:37.220Z,13.11
2019-05-28T05:23:06.558Z,13.14
2019-05-28T05:25:35.901Z,13.11
2019-05-28T05:28:05.243Z,13.15
2019-05-28T05:30:34.580Z,13.14
2019-05-28T05:33:19.129Z,13.14
2019-05-28T05:35:34.960Z,13.14
2019-05-28T05:38:04.311Z,13.18
2019-05-28T05:40:33.658Z,13.22
2019-05-28T05:43:03.007Z,13.27
2019-05-28T05:45:32.346Z,13.29
2019-05-28T05:48:01.685Z,13.34
2019-05-28T05:50:31.038Z,13.35
2019-05-28T05:53:00.366Z,13.37
2019-05-28T05:55:30.030Z,13.43
2019-05-28T05:57:59.358Z,13.46
2019-05-28T06:00:28.703Z,13.51
2019-05-28T06:02:58.044Z,13.53
2019-05-28T06:05:27.462Z,13.55
2019-05-28T06:07:56.825Z,13.58
2019-05-28T06:10:26.160Z,13.60
2019-05-28T06:12:55.488Z,13.62
2019-05-28T06:15:24.839Z,13.62
2019-05-28T06:17:54.164Z,13.67
2019-05-28T06:20:23.573Z,13.67
2019-05-28T06:22:52.904Z,13.73
2019-05-28T06:25:22.310Z,13.76
2019-05-28T06:43:08.128Z,13.94
2019-05-28T06:45:37.718Z,13.93
2019-05-28T06:48:07.051Z,13.97
2019-05-28T06:50:36.386Z,14.07
2019-05-28T06:53:05.723Z,14.08
2019-05-28T06:55:35.074Z,14.14
2019-05-28T06:58:04.391Z,14.19
2019-05-28T07:00:34.032Z,14.26
2019-05-28T07:03:03.662Z,14.27
2019-05-28T07:05:33.574Z,14.30
2019-05-28T07:08:03.011Z,14.34
2019-05-28T07:10:33.290Z,14.39
2019-05-28T07:13:02.693Z,14.44
2019-05-28T07:15:32.999Z,14.44
2019-05-28T07:18:02.359Z,14.42
2019-05-28T07:20:31.709Z,14.42
2019-05-28T07:23:01.042Z,14.53
2019-05-28T07:25:30.374Z,14.57
2019-05-28T07:28:10.243Z,14.58
2019-05-28T07:30:30.743Z,14.60
2019-05-28T07:33:00.485Z,14.59
2019-05-28T07:35:44.568Z,14.68
2019-05-28T07:38:01.070Z,14.73
2019-05-28T07:40:32.267Z,14.69
2019-05-28T07:43:01.739Z,14.63
2019-05-28T07:45:31.076Z,14.70
2019-05-28T07:48:00.498Z,14.75
2019-05-28T07:50:30.063Z,14.80
2019-05-28T07:52:59.411Z,14.83
2019-05-28T07:55:28.751Z,14.80
2019-05-28T07:57:58.113Z,14.85
2019-05-28T08:00:38.585Z,14.90
2019-05-28T08:03:08.569Z,14.95
2019-05-28T08:05:37.976Z,14.96
2019-05-28T08:08:08.876Z,15.00
2019-05-28T08:10:38.285Z,15.04
2019-05-28T08:13:07.677Z,15.07
2019-05-28T08:15:37.242Z,15.10
2019-05-28T08:18:06.579Z,15.13
2019-05-28T08:20:35.910Z,15.20
2019-05-28T08:23:05.251Z,15.27
2019-05-28T08:25:46.891Z,15.32
2019-05-28T08:28:19.403Z,15.39
2019-05-28T08:30:37.632Z,15.43
2019-05-28T08:33:07.198Z,15.44
2019-05-28T08:35:36.528Z,15.48
2019-05-28T08:38:06.164Z,15.49
2019-05-28T08:40:35.495Z,15.48
2019-05-28T08:43:04.842Z,15.45
2019-05-28T08:45:34.196Z,15.41
2019-05-28T08:48:03.535Z,15.32
2019-05-28T08:50:34.978Z,15.25
2019-05-28T08:53:03.935Z,15.20
2019-05-28T08:55:33.415Z,15.17
2019-05-28T08:58:02.946Z,15.12
2019-05-28T09:00:38.292Z,15.07
2019-05-28T09:03:07.752Z,14.98
2019-05-28T09:05:37.191Z,14.93
2019-05-28T09:08:06.618Z,14.90
2019-05-28T09:10:36.046Z,14.90
2019-05-28T09:13:05.788Z,14.91
2019-05-28T09:15:35.451Z,14.92
2019-05-28T09:18:05.260Z,14.90
2019-05-28T09:20:34.625Z,14.89
2019-05-28T09:23:03.969Z,14.91
2019-05-28T09:25:33.552Z,14.81
2019-05-28T09:28:02.956Z,14.84
2019-05-28T09:30:32.296Z,14.88
2019-05-28T09:33:01.647Z,14.90
2019-05-28T09:35:44.129Z,14.90
2019-05-28T09:38:02.367Z,14.94
2019-05-28T09:40:48.580Z,14.95
2019-05-28T09:43:02.890Z,14.90
2019-05-28T09:45:32.222Z,14.98
2019-05-28T09:48:01.575Z,15.04
2019-05-28T09:50:31.450Z,15.09
2019-05-28T09:53:00.733Z,15.06
2019-05-28T09:55:30.077Z,15.07
2019-05-28T09:57:59.400Z,15.08
2019-05-28T10:00:29.333Z,15.10
2019-05-28T10:02:58.659Z,15.12
2019-05-28T10:05:27.996Z,15.14
2019-05-28T10:07:57.546Z,15.11
2019-05-28T10:10:26.948Z,15.11
2019-05-28T10:12:56.233Z,15.12
2019-05-28T10:15:26.046Z,15.08
2019-05-28T10:17:55.377Z,14.98
2019-05-28T10:20:25.167Z,14.96
2019-05-28T10:22:54.567Z,14.80
2019-05-28T10:25:24.134Z,14.73
2019-05-28T10:28:00.860Z,14.45
2019-05-28T10:30:25.248Z,14.41
2019-05-28T10:32:55.014Z,14.24
2019-05-28T10:35:24.884Z,14.15
2019-05-28T10:37:54.280Z,14.10
2019-05-28T10:40:23.847Z,13.98
2019-05-28T10:42:53.242Z,13.87
2019-05-28T10:45:22.730Z,13.77
2019-05-28T10:47:53.244Z,13.67
2019-05-28T10:50:23.368Z,13.58
2019-05-28T10:52:52.704Z,13.49
2019-05-28T10:55:22.045Z,13.40
2019-05-28T10:57:51.373Z,13.31
2019-05-28T11:00:21.564Z,13.23
2019-05-28T11:02:51.270Z,13.20
2019-05-28T11:05:21.853Z,13.20
2019-05-28T11:07:51.499Z,13.20
2019-05-28T11:10:24.385Z,13.24
2019-05-28T11:12:53.402Z,13.28
2019-05-28T11:15:25.697Z,13.40
2019-05-28T11:17:55.036Z,13.49
2019-05-28T11:20:25.013Z,13.62
2019-05-28T11:22:54.642Z,13.69
2019-05-28T11:25:24.280Z,13.83
2019-05-28T11:27:53.611Z,13.99
2019-05-28T11:30:23.599Z,14.17
2019-05-28T11:32:53.291Z,14.28
2019-05-28T11:35:22.886Z,14.38
2019-05-28T11:37:52.204Z,14.47
2019-05-28T11:40:22.107Z,14.59
2019-05-28T11:42:51.459Z,14.61
2019-05-28T11:45:21.673Z,14.66
2019-05-28T11:47:51.509Z,14.80
2019-05-28T11:50:20.987Z,14.88
2019-05-28T11:52:50.309Z,14.95
2019-05-28T11:55:20.316Z,14.88
2019-05-28T11:57:49.667Z,14.91
2019-05-28T12:00:19.625Z,14.85
2019-05-28T12:02:49.308Z,14.93
2019-05-28T12:05:20.262Z,14.93
2019-05-28T12:07:51.783Z,14.92
2019-05-28T12:10:22.490Z,14.98
2019-05-28T12:12:51.832Z,15.01
2019-05-28T12:15:21.830Z,15.04
2019-05-28T12:17:51.200Z,14.95
2019-05-28T12:20:21.499Z,14.98
2019-05-28T12:23:08.976Z,15.02
2019-05-28T12:25:22.445Z,15.03
2019-05-28T12:27:52.049Z,14.99
2019-05-28T12:30:22.007Z,14.90
2019-05-28T12:32:51.335Z,14.91
2019-05-28T12:35:29.401Z,14.93
2019-05-28T12:37:53.040Z,14.91
2019-05-28T12:40:23.249Z,14.68
2019-05-28T12:42:52.579Z,14.59
2019-05-28T12:45:34.955Z,14.52
2019-05-28T12:48:09.565Z,14.59
2019-05-28T12:50:24.793Z,14.65
2019-05-28T12:52:54.159Z,14.49
2019-05-28T12:55:23.746Z,14.47
2019-05-28T12:57:53.088Z,14.39
2019-05-28T13:00:24.355Z,14.21
2019-05-28T13:02:53.684Z,14.24
2019-05-28T13:05:26.503Z,14.27
2019-05-28T13:08:08.466Z,14.31
2019-05-28T13:10:26.868Z,14.21
2019-05-28T13:12:56.203Z,14.25
2019-05-28T13:15:25.717Z,14.30
2019-05-28T13:17:55.070Z,14.31
2019-05-28T13:20:24.465Z,14.22
2019-05-28T13:22:53.802Z,14.22
2019-05-28T13:25:23.126Z,14.32
2019-05-28T13:27:52.535Z,14.27
2019-05-28T13:30:22.200Z,14.18
2019-05-28T13:32:51.801Z,14.21
2019-05-28T13:35:21.360Z,14.11
2019-05-28T13:37:50.809Z,14.18
2019-05-28T13:40:21.892Z,14.18
2019-05-28T13:42:51.829Z,14.19
2019-05-28T13:45:22.362Z,14.23
2019-05-28T13:47:51.701Z,14.26
2019-05-28T13:50:21.663Z,14.27
2019-05-28T13:52:51.382Z,14.28
2019-05-28T13:55:20.772Z,14.32
2019-05-28T13:57:50.096Z,14.36
2019-05-28T14:00:22.003Z,14.39
2019-05-28T14:02:51.336Z,14.47
2019-05-28T14:05:20.840Z,14.56
2019-05-28T14:07:50.509Z,14.67
2019-05-28T14:10:20.146Z,14.68
2019-05-28T14:12:49.533Z,14.84
2019-05-28T14:15:19.727Z,14.98
2019-05-28T14:17:49.090Z,15.15
2019-05-28T14:20:20.901Z,15.32
2019-05-28T14:22:50.255Z,15.45
2019-05-28T14:25:19.669Z,15.51
2019-05-28T14:27:48.995Z,15.56
2019-05-28T14:30:20.053Z,15.68
2019-05-28T14:32:49.620Z,15.71
2019-05-28T14:35:19.025Z,15.73
2019-05-28T14:37:48.636Z,15.78
2019-05-28T14:40:18.205Z,15.73
2019-05-28T14:42:47.533Z,15.71
2019-05-28T14:45:17.638Z,15.70
2019-05-28T14:47:46.999Z,15.59
2019-05-28T14:50:17.044Z,15.68
2019-05-28T14:52:46.375Z,15.68
2019-05-28T14:55:17.457Z,15.56
2019-05-28T14:57:46.769Z,15.60
2019-05-28T15:00:18.618Z,15.46
2019-05-28T15:02:47.970Z,15.41
2019-05-28T15:05:17.753Z,15.35
2019-05-28T15:07:47.089Z,15.17
2019-05-28T15:10:17.471Z,15.12
2019-05-28T15:12:46.816Z,15.16
2019-05-28T15:15:34.014Z,15.18
2019-05-28T15:17:48.044Z,15.18
2019-05-28T15:20:19.188Z,15.18
2019-05-28T15:22:48.590Z,15.11
2019-05-28T15:25:18.271Z,15.01
2019-05-28T15:27:47.600Z,14.96
2019-05-28T15:30:18.802Z,14.93
2019-05-28T15:32:48.204Z,14.87
2019-05-28T15:35:17.669Z,14.78
2019-05-28T15:37:47.233Z,14.76
2019-05-28T15:40:16.912Z,14.73
2019-05-28T15:42:46.245Z,14.69
2019-05-28T15:45:15.934Z,14.72
2019-05-28T15:47:45.371Z,14.77
2019-05-28T15:50:15.203Z,14.78
2019-05-28T15:52:44.530Z,14.81
2019-05-28T15:55:14.530Z,14.83
2019-05-28T15:57:44.819Z,14.89
2019-05-28T16:00:23.393Z,14.95
2019-05-28T16:02:53.262Z,14.96
2019-05-28T16:05:22.596Z,14.98
2019-05-28T16:07:52.054Z,14.98
2019-05-28T16:10:21.858Z,14.98
2019-05-28T16:12:51.240Z,14.94
2019-05-28T16:15:20.939Z,14.91
2019-05-28T16:17:50.264Z,14.93
2019-05-28T16:20:21.076Z,14.95
2019-05-28T16:22:50.459Z,14.97
2019-05-28T16:25:20.087Z,15.06
2019-05-28T16:27:49.426Z,15.12
2019-05-28T16:30:19.105Z,15.19
2019-05-28T16:32:48.472Z,15.29
2019-05-28T16:35:20.048Z,15.38
2019-05-28T16:37:50.385Z,15.49
2019-05-28T16:40:20.166Z,15.51
2019-05-28T16:42:49.585Z,15.48
2019-05-28T16:45:19.630Z,15.47
2019-05-28T16:47:48.975Z,15.41
2019-05-28T16:50:18.904Z,15.30
2019-05-28T16:52:48.483Z,15.26
2019-05-28T16:55:18.061Z,15.21
2019-05-28T16:57:47.461Z,15.16
2019-05-28T17:00:17.330Z,15.13
2019-05-28T17:02:46.674Z,15.07
2019-05-28T17:05:17.438Z,15.02
2019-05-28T17:07:46.775Z,15.00
2019-05-28T17:10:31.769Z,15.01
2019-05-28T17:12:47.498Z,15.05
2019-05-28T17:15:17.383Z,15.10
2019-05-28T17:17:47.124Z,15.14
2019-05-28T17:20:17.994Z,15.18
2019-05-28T17:22:47.598Z,15.19
2019-05-28T17:25:18.031Z,15.20
2019-05-28T17:27:47.676Z,15.20
2019-05-28T17:30:23.594Z,15.18
2019-05-28T17:32:49.682Z,15.20
2019-05-28T17:35:19.222Z,15.22
2019-05-28T17:37:49.653Z,15.22
2019-05-28T17:40:22.477Z,15.19
2019-05-28T17:42:50.263Z,15.19
2019-05-28T17:45:20.066Z,15.22
2019-05-28T17:47:49.416Z,15.21
2019-05-28T17:50:19.871Z,15.21
2019-05-28T17:52:51.601Z,15.17
2019-05-28T17:55:20.238Z,15.08
2019-05-28T17:57:49.632Z,15.06
2019-05-28T18:00:18.978Z,15.00
2019-05-28T18:02:48.777Z,14.96
2019-05-28T18:05:18.618Z,14.90
2019-05-28T18:07:48.116Z,14.83
2019-05-28T18:10:17.933Z,14.75
2019-05-28T18:12:47.345Z,14.68
2019-05-28T18:15:17.007Z,14.63
2019-05-28T18:17:46.385Z,14.60
2019-05-28T18:20:16.251Z,14.59
2019-05-28T18:22:45.613Z,14.57
2019-05-28T18:25:15.204Z,14.55
2019-05-28T18:27:45.506Z,14.50
2019-05-28T18:30:16.102Z,14.48
2019-05-28T18:32:45.426Z,14.44
2019-05-28T18:35:14.990Z,14.40
2019-05-28T18:37:44.736Z,14.38
2019-05-28T18:40:14.420Z,14.34
2019-05-28T18:42:43.989Z,14.31
2019-05-28T18:45:13.758Z,14.25
2019-05-28T18:47:43.092Z,14.20
2019-05-28T18:50:15.040Z,14.17
2019-05-28T18:52:44.360Z,14.13
2019-05-28T18:55:13.829Z,14.08
2019-05-28T18:57:43.226Z,14.01
2019-05-28T19:00:13.590Z,13.97
2019-05-28T19:02:43.184Z,13.94
2019-05-28T19:05:13.069Z,13.89
2019-05-28T19:07:42.665Z,13.86
2019-05-28T19:10:12.068Z,13.81
2019-05-28T19:12:41.393Z,13.77
2019-05-28T19:15:11.014Z,13.72
2019-05-28T19:17:40.398Z,13.69
2019-05-28T19:20:10.190Z,13.68
2019-05-28T19:22:39.756Z,13.64
2019-05-28T19:25:10.594Z,13.61
2019-05-28T19:27:40.147Z,13.56
2019-05-28T19:30:10.481Z,13.53
2019-05-28T19:32:40.155Z,13.50
2019-05-28T19:35:10.814Z,13.48
2019-05-28T19:37:40.990Z,13.46
2019-05-28T19:40:11.355Z,13.42
2019-05-28T19:42:40.710Z,13.40
2019-05-28T19:45:10.193Z,13.39
2019-05-28T19:47:39.765Z,13.38
2019-05-28T19:50:09.544Z,13.38
2019-05-28T19:52:39.127Z,13.35
2019-05-28T19:55:08.779Z,13.34
2019-05-28T19:57:38.341Z,13.33
2019-05-28T20:00:08.892Z,13.33
2019-05-28T20:02:39.657Z,13.32
2019-05-28T20:05:09.417Z,13.31
2019-05-28T20:07:38.917Z,13.28
2019-05-28T20:10:08.856Z,13.25
2019-05-28T20:12:38.270Z,13.21
2019-05-28T20:15:12.551Z,13.19
2019-05-28T20:17:41.876Z,13.21
2019-05-28T20:20:11.738Z,13.18
2019-05-28T20:22:41.076Z,13.17
2019-05-28T20:25:10.924Z,13.17
2019-05-28T20:27:40.294Z,13.14
2019-05-28T20:30:11.453Z,13.14
2019-05-28T20:32:41.065Z,13.13
2019-05-28T20:35:11.171Z,13.12
2019-05-28T20:37:40.713Z,13.07
2019-05-28T20:40:10.481Z,13.03
2019-05-28T20:42:39.812Z,13.00
2019-05-28T20:45:11.921Z,12.93
2019-05-28T20:47:40.811Z,12.88
2019-05-28T20:50:11.945Z,12.82
2019-05-28T20:52:42.283Z,12.72
2019-05-28T20:55:12.265Z,12.68
2019-05-28T20:57:41.602Z,12.62
2019-05-28T21:00:12.077Z,12.60
2019-05-28T21:02:41.412Z,12.55
2019-05-28T21:05:12.036Z,12.49
2019-05-28T21:07:41.375Z,12.42
2019-05-28T21:10:11.033Z,12.34
2019-05-28T21:12:44.421Z,12.29
2019-05-28T21:15:15.844Z,12.26
2019-05-28T21:17:43.575Z,12.21
2019-05-28T21:20:13.737Z,12.15
2019-05-28T21:22:43.135Z,12.09
2019-05-28T21:25:13.202Z,12.02
2019-05-28T21:27:42.524Z,11.97
2019-05-28T21:30:12.202Z,11.94
2019-05-28T21:32:41.853Z,11.87
2019-05-28T21:35:11.413Z,11.84
2019-05-28T21:37:40.762Z,11.79
2019-05-28T21:40:10.524Z,11.72
2019-05-28T21:42:39.860Z,11.69
2019-05-28T21:45:09.853Z,11.64
2019-05-28T21:47:39.179Z,11.61
2019-05-28T21:50:10.146Z,11.61
2019-05-28T21:52:39.704Z,11.54
2019-05-28T21:55:09.471Z,11.47
2019-05-28T21:57:38.796Z,11.38
2019-05-28T22:00:17.965Z,11.30
2019-05-28T22:02:48.915Z,11.26
2019-05-28T22:05:18.415Z,11.20
2019-05-28T22:07:48.099Z,11.11
2019-05-28T22:10:17.494Z,11.07
2019-05-28T22:12:47.790Z,11.02
2019-05-28T22:15:17.497Z,10.96
2019-05-28T22:17:47.067Z,10.90
2019-05-28T22:20:16.641Z,10.89
2019-05-28T22:22:46.943Z,10.89
2019-05-28T22:25:16.417Z,10.86
2019-05-28T22:27:46.720Z,10.83
2019-05-28T22:30:16.801Z,10.83
2019-05-28T22:32:46.193Z,10.81
2019-05-28T22:35:15.799Z,10.76
2019-05-28T22:37:45.141Z,10.73
2019-05-28T22:40:15.417Z,10.69
2019-05-28T22:42:44.740Z,10.64
2019-05-28T22:45:14.796Z,10.61
2019-05-28T22:47:44.134Z,10.58
2019-05-28T22:50:22.571Z,10.51
2019-05-28T22:52:45.035Z,10.47
2019-05-28T22:55:14.935Z,10.44
2019-05-28T22:57:44.273Z,10.40
2019-05-28T23:00:14.960Z,10.32
2019-05-28T23:02:44.261Z,10.27
2019-05-28T23:05:14.426Z,10.20
2019-05-28T23:07:43.761Z,10.12
2019-05-28T23:10:13.162Z,10.03
2019-05-28T23:12:42.730Z,9.95
2019-05-28T23:15:12.438Z,9.90
2019-05-28T23:17:41.769Z,9.90
2019-05-28T23:20:12.199Z,9.87
2019-05-28T23:22:41.524Z,9.84
2019-05-28T23:25:11.819Z,9.81
2019-05-28T23:27:41.102Z,9.79
2019-05-28T23:30:23.478Z,9.74
2019-05-28T23:32:41.641Z,9.68
2019-05-28T23:35:12.713Z,9.59
2019-05-28T23:37:42.129Z,9.49
2019-05-28T23:40:11.892Z,9.42
2019-05-28T23:42:41.223Z,9.35
2019-05-28T23:45:11.813Z,9.32
2019-05-28T23:47:41.194Z,9.31
2019-05-28T23:50:14.812Z,9.32
2019-05-28T23:52:42.166Z,9.29
2019-05-28T23:55:11.896Z,9.29
2019-05-28T23:57:41.229Z,9.27
